createdAt,value
2017-07-23T00:00:12.841Z,99.99
2017-07-23T00:01:25.421Z,99.99
2017-07-23T00:02:38.041Z,99.99
2017-07-23T00:03:50.644Z,99.99
2017-07-23T00:05:03.414Z,99.99
2017-07-23T00:06:15.960Z,99.99
2017-07-23T00:07:28.544Z,99.99
2017-07-23T00:08:40.884Z,99.99
2017-07-23T00:09:53.505Z,99.99
2017-07-23T00:11:05.805Z,99.99
2017-07-23T00:12:18.398Z,99.99
2017-07-23T00:13:30.966Z,99.99
2017-07-23T00:14:42.640Z,99.99
2017-07-23T00:15:55.187Z,99.99
2017-07-23T00:17:07.481Z,99.99
2017-07-23T00:18:20.019Z,99.99
2017-07-23T00:19:32.647Z,99.99
2017-07-23T00:20:44.885Z,99.99
2017-07-23T00:21:57.464Z,99.99
2017-07-23T00:23:09.728Z,99.99
2017-07-23T00:24:21.983Z,99.99
2017-07-23T00:25:34.272Z,99.99
2017-07-23T00:26:46.878Z,99.99
2017-07-23T00:27:59.524Z,99.99
2017-07-23T00:29:12.107Z,99.99
2017-07-23T00:30:24.738Z,99.99
2017-07-23T00:31:37.261Z,99.99
2017-07-23T00:32:49.875Z,99.99
2017-07-23T00:34:02.482Z,99.99
2017-07-23T00:35:15.101Z,99.99
2017-07-23T00:36:27.657Z,99.99
2017-07-23T00:37:39.971Z,99.99
2017-07-23T00:38:52.295Z,99.99
2017-07-23T00:40:04.881Z,99.99
2017-07-23T00:41:17.499Z,99.99
2017-07-23T00:42:29.819Z,99.99
2017-07-23T00:43:42.201Z,99.99
2017-07-23T00:44:54.460Z,99.99
2017-07-23T00:46:07.107Z,99.99
2017-07-23T00:47:19.378Z,99.99
2017-07-23T00:48:31.972Z,99.99
2017-07-23T00:49:44.512Z,99.99
2017-07-23T00:50:56.794Z,99.99
2017-07-23T00:52:09.044Z,99.99
2017-07-23T00:53:21.642Z,99.99
2017-07-23T00:54:34.004Z,99.99
2017-07-23T00:55:46.588Z,99.99
2017-07-23T00:56:58.878Z,99.99
2017-07-23T00:58:11.434Z,99.99
2017-07-23T00:59:24.311Z,99.99
2017-07-23T01:00:36.934Z,99.99
2017-07-23T01:01:49.480Z,99.99
2017-07-23T01:03:02.141Z,99.99
2017-07-23T01:04:14.363Z,99.99
2017-07-23T01:05:26.918Z,99.99
2017-07-23T01:06:39.519Z,99.99
2017-07-23T01:07:52.137Z,99.99
2017-07-23T01:09:04.810Z,99.99
2017-07-23T01:10:17.450Z,99.99
2017-07-23T01:11:30.022Z,99.99
2017-07-23T01:12:42.342Z,99.99
2017-07-23T01:13:54.913Z,99.99
2017-07-23T01:15:07.502Z,99.99
2017-07-23T01:16:19.757Z,99.99
2017-07-23T01:17:32.102Z,99.99
2017-07-23T01:18:44.658Z,99.99
2017-07-23T01:19:57.261Z,99.99
2017-07-23T01:21:09.541Z,99.99
2017-07-23T01:22:22.077Z,99.99
2017-07-23T01:23:34.392Z,99.99
2017-07-23T01:24:47.017Z,99.99
2017-07-23T01:25:59.671Z,99.99
2017-07-23T01:27:12.222Z,99.99
2017-07-23T01:28:24.525Z,99.99
2017-07-23T01:29:37.084Z,99.99
2017-07-23T01:30:49.350Z,99.99
2017-07-23T01:32:01.934Z,99.99
2017-07-23T01:33:14.503Z,99.99
2017-07-23T01:34:27.109Z,99.99
2017-07-23T01:35:39.708Z,99.99
2017-07-23T01:36:52.238Z,99.99
2017-07-23T01:38:04.786Z,99.99
2017-07-23T01:39:17.371Z,99.99
2017-07-23T01:40:29.979Z,99.99
2017-07-23T01:41:41.950Z,99.99
2017-07-23T01:42:54.735Z,99.99
2017-07-23T01:44:07.385Z,99.99
2017-07-23T01:45:19.674Z,99.99
2017-07-23T01:46:32.284Z,99.99
2017-07-23T01:47:44.877Z,99.99
2017-07-23T01:48:57.482Z,99.99
2017-07-23T01:50:09.769Z,99.99
2017-07-23T01:51:22.072Z,99.99
2017-07-23T01:52:34.676Z,99.99
2017-07-23T01:53:46.965Z,99.99
2017-07-23T01:54:59.222Z,99.99
2017-07-23T01:56:11.771Z,99.99
2017-07-23T01:57:24.309Z,99.99
2017-07-23T01:58:36.895Z,99.99
2017-07-23T01:59:49.476Z,99.99
2017-07-23T02:01:02.090Z,99.99
2017-07-23T02:02:14.736Z,99.99
2017-07-23T02:03:26.972Z,99.99
2017-07-23T02:04:39.569Z,99.99
2017-07-23T02:05:52.141Z,99.99
2017-07-23T02:07:04.434Z,99.99
2017-07-23T02:08:17.029Z,99.99
2017-07-23T02:09:29.351Z,99.99
2017-07-23T02:10:41.946Z,99.99
2017-07-23T02:11:54.528Z,99.99
2017-07-23T02:13:07.192Z,99.99
2017-07-23T02:14:19.795Z,99.99
2017-07-23T02:15:32.412Z,99.99
2017-07-23T02:16:45.002Z,99.99
2017-07-23T02:17:57.581Z,99.99
2017-07-23T02:19:10.120Z,99.99
2017-07-23T02:20:22.705Z,99.99
2017-07-23T02:21:35.332Z,99.99
2017-07-23T02:22:47.878Z,99.99
2017-07-23T02:24:00.168Z,99.99
2017-07-23T02:25:12.446Z,99.99
2017-07-23T02:26:25.046Z,99.99
2017-07-23T02:27:37.337Z,99.99
2017-07-23T02:28:49.913Z,99.99
2017-07-23T02:30:02.207Z,99.99
2017-07-23T02:31:14.781Z,99.99
2017-07-23T02:32:27.412Z,99.99
2017-07-23T02:33:39.986Z,99.99
2017-07-23T02:34:52.604Z,99.99
2017-07-23T02:36:05.195Z,99.99
2017-07-23T02:37:18.067Z,99.99
2017-07-23T02:38:30.684Z,99.99
2017-07-23T02:39:43.324Z,99.99
2017-07-23T02:40:55.905Z,99.99
2017-07-23T02:42:08.571Z,99.99
2017-07-23T02:43:21.189Z,99.99
2017-07-23T02:44:33.474Z,99.99
2017-07-23T02:45:45.695Z,99.99
2017-07-23T02:46:58.215Z,99.99
2017-07-23T02:48:10.804Z,99.99
2017-07-23T02:49:23.421Z,99.99
2017-07-23T02:50:35.964Z,99.99
2017-07-23T02:51:48.312Z,99.99
2017-07-23T02:53:00.881Z,99.99
2017-07-23T02:54:13.580Z,99.99
2017-07-23T02:55:25.845Z,99.99
2017-07-23T02:56:38.432Z,99.99
2017-07-23T02:57:51.012Z,99.99
2017-07-23T02:59:03.570Z,99.99
2017-07-23T03:00:16.177Z,99.99
2017-07-23T03:01:28.799Z,99.99
2017-07-23T03:02:41.457Z,99.99
2017-07-23T03:03:54.072Z,99.99
2017-07-23T03:05:06.704Z,99.99
2017-07-23T03:06:19.250Z,99.99
2017-07-23T03:07:31.771Z,99.99
2017-07-23T03:08:44.367Z,99.99
2017-07-23T03:09:57.187Z,99.99
2017-07-23T03:11:09.459Z,99.99
2017-07-23T03:12:21.740Z,99.99
2017-07-23T03:13:34.332Z,99.99
2017-07-23T03:14:46.897Z,99.99
2017-07-23T03:15:59.501Z,99.99
2017-07-23T03:17:11.797Z,99.99
2017-07-23T03:18:24.070Z,99.99
2017-07-23T03:19:36.643Z,99.99
2017-07-23T03:20:49.212Z,99.99
2017-07-23T03:22:01.761Z,99.99
2017-07-23T03:23:14.326Z,99.99
2017-07-23T03:24:26.608Z,99.99
2017-07-23T03:25:39.245Z,99.99
2017-07-23T03:26:51.790Z,99.99
2017-07-23T03:28:04.366Z,99.99
2017-07-23T03:29:16.953Z,99.99
2017-07-23T03:30:28.977Z,99.99
2017-07-23T03:31:41.832Z,99.99
2017-07-23T03:32:54.142Z,99.99
2017-07-23T03:34:06.800Z,99.99
2017-07-23T03:35:19.117Z,99.99
2017-07-23T03:36:31.680Z,99.99
2017-07-23T03:37:44.226Z,99.99
2017-07-23T03:38:56.826Z,99.99
2017-07-23T03:40:09.418Z,99.99
2017-07-23T03:41:22.028Z,99.99
2017-07-23T03:42:34.359Z,99.99
2017-07-23T03:43:46.923Z,99.99
2017-07-23T03:44:59.506Z,99.99
2017-07-23T03:46:11.783Z,99.99
2017-07-23T03:47:24.372Z,99.99
2017-07-23T03:48:36.701Z,99.99
2017-07-23T03:49:48.987Z,99.99
2017-07-23T03:51:01.588Z,99.99
2017-07-23T03:52:14.145Z,99.99
2017-07-23T03:53:26.640Z,99.99
2017-07-23T03:54:39.205Z,99.99
2017-07-23T03:55:51.798Z,99.99
2017-07-23T03:57:04.393Z,99.99
2017-07-23T03:58:16.657Z,99.99
2017-07-23T03:59:29.278Z,99.99
2017-07-23T04:00:41.842Z,99.99
2017-07-23T04:01:54.370Z,99.99
2017-07-23T04:03:06.951Z,99.99
2017-07-23T04:04:19.289Z,99.99
2017-07-23T04:05:31.531Z,99.99
2017-07-23T04:06:44.134Z,99.99
2017-07-23T04:07:56.749Z,99.99
2017-07-23T04:09:09.344Z,99.99
2017-07-23T04:10:21.931Z,99.99
2017-07-23T04:11:34.242Z,99.99
2017-07-23T04:12:46.821Z,99.99
2017-07-23T04:13:59.402Z,99.99
2017-07-23T04:15:11.650Z,99.99
2017-07-23T04:16:24.256Z,99.99
2017-07-23T04:17:36.891Z,99.99
2017-07-23T04:18:49.462Z,99.99
2017-07-23T04:20:01.781Z,99.99
2017-07-23T04:21:14.371Z,99.99
2017-07-23T04:22:26.969Z,99.99
2017-07-23T04:23:39.599Z,99.99
2017-07-23T04:24:51.909Z,99.99
2017-07-23T04:26:04.430Z,99.99
2017-07-23T04:27:16.358Z,99.99
2017-07-23T04:28:28.986Z,99.99
2017-07-23T04:29:41.257Z,99.99
2017-07-23T04:30:53.539Z,99.99
2017-07-23T04:32:06.103Z,99.99
2017-07-23T04:33:18.416Z,99.99
2017-07-23T04:34:30.984Z,99.99
2017-07-23T04:35:43.606Z,99.99
2017-07-23T04:36:56.185Z,99.99
2017-07-23T04:38:08.746Z,99.99
2017-07-23T04:39:20.746Z,99.99
2017-07-23T04:40:33.363Z,99.99
2017-07-23T04:41:45.985Z,99.99
2017-07-23T04:42:58.554Z,99.99
2017-07-23T04:44:11.152Z,99.99
2017-07-23T04:45:23.401Z,99.99
2017-07-23T04:46:35.374Z,99.99
2017-07-23T04:47:47.931Z,99.99
2017-07-23T04:49:00.495Z,99.99
2017-07-23T04:50:12.467Z,99.99
2017-07-23T04:51:25.070Z,99.99
2017-07-23T04:52:37.690Z,99.99
2017-07-23T04:53:49.947Z,99.99
2017-07-23T04:55:02.569Z,99.99
2017-07-23T04:56:14.562Z,99.99
2017-07-23T04:57:26.859Z,99.99
2017-07-23T04:58:39.753Z,99.99
2017-07-23T04:59:52.335Z,99.99
2017-07-23T05:01:04.588Z,99.99
2017-07-23T05:02:17.176Z,99.99
2017-07-23T05:03:29.843Z,99.99
2017-07-23T05:04:42.488Z,99.99
2017-07-23T05:05:54.782Z,99.99
2017-07-23T05:07:07.366Z,99.99
2017-07-23T05:08:19.662Z,99.99
2017-07-23T05:09:31.959Z,99.99
2017-07-23T05:10:43.904Z,99.99
2017-07-23T05:11:56.508Z,99.99
2017-07-23T05:13:08.778Z,99.99
2017-07-23T05:14:21.367Z,99.99
2017-07-23T05:15:33.947Z,99.99
2017-07-23T05:16:46.545Z,99.99
2017-07-23T05:17:59.164Z,99.99
2017-07-23T05:19:11.694Z,99.99
2017-07-23T05:20:24.015Z,99.99
2017-07-23T05:21:35.997Z,99.99
2017-07-23T05:22:48.582Z,99.99
2017-07-23T05:24:01.220Z,99.99
2017-07-23T05:25:13.569Z,99.99
2017-07-23T05:26:26.146Z,99.99
2017-07-23T05:27:38.671Z,99.99
2017-07-23T05:28:50.897Z,99.99
2017-07-23T05:30:03.438Z,99.99
2017-07-23T05:31:16.019Z,99.99
2017-07-23T05:32:28.618Z,99.99
2017-07-23T05:33:40.979Z,99.99
2017-07-23T05:34:53.279Z,99.99
2017-07-23T05:36:05.900Z,99.99
2017-07-23T05:37:18.508Z,99.99
2017-07-23T05:38:31.145Z,99.99
2017-07-23T05:39:43.731Z,99.99
2017-07-23T05:40:56.010Z,99.99
2017-07-23T05:42:08.306Z,99.99
2017-07-23T05:43:20.844Z,99.99
2017-07-23T05:44:33.433Z,99.99
2017-07-23T05:45:46.045Z,99.99
2017-07-23T05:46:58.288Z,99.99
2017-07-23T05:48:10.888Z,99.99
2017-07-23T05:49:23.518Z,99.99
2017-07-23T05:50:36.094Z,99.99
2017-07-23T05:51:48.686Z,99.99
2017-07-23T05:53:01.344Z,99.99
2017-07-23T05:54:13.940Z,99.99
2017-07-23T05:55:26.527Z,99.99
2017-07-23T05:56:39.098Z,99.99
2017-07-23T05:57:51.667Z,99.99
2017-07-23T05:59:04.272Z,99.99
2017-07-23T06:00:16.919Z,99.99
2017-07-23T06:01:29.220Z,99.99
2017-07-23T06:02:41.852Z,99.99
2017-07-23T06:03:53.782Z,99.99
2017-07-23T06:05:06.428Z,99.99
2017-07-23T06:06:19.009Z,99.99
2017-07-23T06:07:31.773Z,99.99
2017-07-23T06:08:44.015Z,99.99
2017-07-23T06:09:56.510Z,99.99
2017-07-23T06:11:08.773Z,99.99
2017-07-23T06:12:21.403Z,99.99
2017-07-23T06:13:33.716Z,99.99
2017-07-23T06:14:45.699Z,99.99
2017-07-23T06:15:58.008Z,99.99
2017-07-23T06:17:10.620Z,99.99
2017-07-23T06:18:22.593Z,99.99
2017-07-23T06:19:34.884Z,99.99
2017-07-23T06:20:47.435Z,99.99
2017-07-23T06:21:59.756Z,99.99
2017-07-23T06:23:12.340Z,99.99
2017-07-23T06:24:24.316Z,99.99
2017-07-23T06:25:36.551Z,99.99
2017-07-23T06:26:49.203Z,99.99
2017-07-23T06:28:01.812Z,99.99
2017-07-23T06:29:14.412Z,99.99
2017-07-23T06:30:26.684Z,99.99
2017-07-23T06:31:38.930Z,99.99
2017-07-23T06:32:51.462Z,99.99
2017-07-23T06:34:03.748Z,99.99
2017-07-23T06:35:16.310Z,99.99
2017-07-23T06:36:28.874Z,99.99
2017-07-23T06:37:41.495Z,99.99
2017-07-23T06:38:54.105Z,99.99
2017-07-23T06:40:06.402Z,99.99
2017-07-23T06:41:18.960Z,99.99
2017-07-23T06:42:31.577Z,99.99
2017-07-23T06:43:44.201Z,99.99
2017-07-23T06:44:56.818Z,99.99
2017-07-23T06:46:09.117Z,99.99
2017-07-23T06:47:22.009Z,99.99
2017-07-23T06:48:34.633Z,99.99
2017-07-23T06:49:47.169Z,99.99
2017-07-23T06:50:59.488Z,99.99
2017-07-23T06:52:11.735Z,99.99
2017-07-23T06:53:24.364Z,99.99
2017-07-23T06:54:36.960Z,99.99
2017-07-23T06:55:49.288Z,99.99
2017-07-23T06:57:01.891Z,99.99
2017-07-23T06:58:14.696Z,99.99
2017-07-23T06:59:27.279Z,99.99
2017-07-23T07:00:39.938Z,99.99
2017-07-23T07:01:52.278Z,99.99
2017-07-23T07:03:04.617Z,99.99
2017-07-23T07:04:16.683Z,99.99
2017-07-23T07:05:29.302Z,99.99
2017-07-23T07:06:41.595Z,99.99
2017-07-23T07:07:54.192Z,99.99
2017-07-23T07:09:06.447Z,99.99
2017-07-23T07:10:18.735Z,99.99
2017-07-23T07:11:30.757Z,99.99
2017-07-23T07:12:43.026Z,99.99
2017-07-23T07:13:55.020Z,99.99
2017-07-23T07:15:07.608Z,99.99
2017-07-23T07:16:19.921Z,99.99
2017-07-23T07:17:32.546Z,99.99
2017-07-23T07:18:45.189Z,99.99
2017-07-23T07:19:57.774Z,99.99
2017-07-23T07:21:10.020Z,99.99
2017-07-23T07:22:22.641Z,99.99
2017-07-23T07:23:35.273Z,99.99
2017-07-23T07:24:47.917Z,99.99
2017-07-23T07:26:00.240Z,99.99
2017-07-23T07:27:12.530Z,99.99
2017-07-23T07:28:25.132Z,99.99
2017-07-23T07:29:37.727Z,99.99
2017-07-23T07:30:50.369Z,99.99
2017-07-23T07:32:02.614Z,99.99
2017-07-23T07:33:14.631Z,99.99
2017-07-23T07:34:26.618Z,99.99
2017-07-23T07:35:39.171Z,99.99
2017-07-23T07:36:51.724Z,99.99
2017-07-23T07:38:03.700Z,99.99
2017-07-23T07:39:16.251Z,99.99
2017-07-23T07:40:28.835Z,99.99
2017-07-23T07:41:41.691Z,99.99
2017-07-23T07:42:54.307Z,99.99
2017-07-23T07:44:06.918Z,99.99
2017-07-23T07:45:19.219Z,99.99
2017-07-23T07:46:31.800Z,99.99
2017-07-23T07:47:43.778Z,99.99
2017-07-23T07:48:56.058Z,99.99
2017-07-23T07:50:08.295Z,99.99
2017-07-23T07:51:20.616Z,99.99
2017-07-23T07:52:33.213Z,99.99
2017-07-23T07:53:45.516Z,99.99
2017-07-23T07:54:57.835Z,99.99
2017-07-23T07:56:10.394Z,99.99
2017-07-23T07:57:23.000Z,99.99
2017-07-23T07:58:35.900Z,99.99
2017-07-23T07:59:48.488Z,99.99
2017-07-23T08:01:01.103Z,99.99
2017-07-23T08:02:13.383Z,99.99
2017-07-23T08:03:25.734Z,99.99
2017-07-23T08:04:38.040Z,99.99
2017-07-23T08:05:50.570Z,99.99
2017-07-23T08:07:02.901Z,99.99
2017-07-23T08:08:15.486Z,99.99
2017-07-23T08:09:28.082Z,99.99
2017-07-23T08:10:40.320Z,99.99
2017-07-23T08:11:52.879Z,99.99
2017-07-23T08:13:05.469Z,99.99
2017-07-23T08:14:18.008Z,99.99
2017-07-23T08:15:30.624Z,99.99
2017-07-23T08:16:43.285Z,99.99
2017-07-23T08:17:55.609Z,99.99
2017-07-23T08:19:07.880Z,99.99
2017-07-23T08:20:20.527Z,99.99
2017-07-23T08:21:33.156Z,99.99
2017-07-23T08:22:44.831Z,99.99
2017-07-23T08:23:57.437Z,99.99
2017-07-23T08:25:10.054Z,99.99
2017-07-23T08:26:22.073Z,99.99
2017-07-23T08:27:34.704Z,99.99
2017-07-23T08:28:47.308Z,99.99
2017-07-23T08:29:59.504Z,99.99
2017-07-23T08:31:11.783Z,99.99
2017-07-23T08:32:24.379Z,99.99
2017-07-23T08:33:36.728Z,99.99
2017-07-23T08:34:49.333Z,99.99
2017-07-23T08:36:01.903Z,99.99
2017-07-23T08:37:14.540Z,99.99
2017-07-23T08:38:26.876Z,99.99
2017-07-23T08:39:39.467Z,99.99
2017-07-23T08:40:52.005Z,99.99
2017-07-23T08:42:04.299Z,99.99
2017-07-23T08:43:16.616Z,99.99
2017-07-23T08:44:28.931Z,99.99
2017-07-23T08:45:41.538Z,99.99
2017-07-23T08:46:54.146Z,99.99
2017-07-23T08:48:06.705Z,99.99
2017-07-23T08:49:19.325Z,99.99
2017-07-23T08:50:31.928Z,99.99
2017-07-23T08:51:44.525Z,99.99
2017-07-23T08:52:56.576Z,99.99
2017-07-23T08:54:08.940Z,99.99
2017-07-23T08:55:20.651Z,99.99
2017-07-23T08:56:33.251Z,99.99
2017-07-23T08:57:46.066Z,99.99
2017-07-23T08:58:58.412Z,99.99
2017-07-23T09:00:10.968Z,99.99
2017-07-23T09:01:23.030Z,99.99
2017-07-23T09:02:35.655Z,99.99
2017-07-23T09:03:48.229Z,99.99
2017-07-23T09:05:00.784Z,99.99
2017-07-23T09:06:13.054Z,99.99
2017-07-23T09:07:25.773Z,99.99
2017-07-23T09:08:38.057Z,99.99
2017-07-23T09:09:50.351Z,99.99
2017-07-23T09:11:02.904Z,99.99
2017-07-23T09:12:15.436Z,99.99
2017-07-23T09:13:27.765Z,99.99
2017-07-23T09:14:40.379Z,99.99
2017-07-23T09:15:52.936Z,99.99
2017-07-23T09:17:05.321Z,99.99
2017-07-23T09:18:17.927Z,99.99
2017-07-23T09:19:30.217Z,99.99
2017-07-23T09:20:42.843Z,99.99
2017-07-23T09:21:55.471Z,99.99
2017-07-23T09:23:08.075Z,99.99
2017-07-23T09:24:20.604Z,99.99
2017-07-23T09:25:32.604Z,99.99
2017-07-23T09:26:45.145Z,99.99
2017-07-23T09:27:57.794Z,99.99
2017-07-23T09:29:10.387Z,99.99
2017-07-23T09:30:22.340Z,99.99
2017-07-23T09:31:34.682Z,99.99
2017-07-23T09:32:46.973Z,99.99
2017-07-23T09:33:59.602Z,99.99
2017-07-23T09:35:12.245Z,99.99
2017-07-23T09:36:24.299Z,99.99
2017-07-23T09:37:36.935Z,99.99
2017-07-23T09:38:49.503Z,99.99
2017-07-23T09:40:01.843Z,99.99
2017-07-23T09:41:14.436Z,99.99
2017-07-23T09:42:26.748Z,99.99
2017-07-23T09:43:38.973Z,99.99
2017-07-23T09:44:51.601Z,99.99
2017-07-23T09:46:03.914Z,99.99
2017-07-23T09:47:16.212Z,99.99
2017-07-23T09:48:28.839Z,99.99
2017-07-23T09:49:41.356Z,99.99
2017-07-23T09:50:53.713Z,99.99
2017-07-23T09:52:06.333Z,99.99
2017-07-23T09:53:18.586Z,99.99
2017-07-23T09:54:31.155Z,99.99
2017-07-23T09:55:43.124Z,99.99
2017-07-23T09:56:55.428Z,99.99
2017-07-23T09:58:07.444Z,99.99
2017-07-23T09:59:19.738Z,99.99
2017-07-23T10:00:32.058Z,99.99
2017-07-23T10:01:44.679Z,99.99
2017-07-23T10:02:57.519Z,99.99
2017-07-23T10:04:09.841Z,99.99
2017-07-23T10:05:22.412Z,99.99
2017-07-23T10:06:34.687Z,99.99
2017-07-23T10:07:47.307Z,99.99
2017-07-23T10:08:59.869Z,99.99
2017-07-23T10:10:12.131Z,99.99
2017-07-23T10:11:24.447Z,99.99
2017-07-23T10:12:36.752Z,99.99
2017-07-23T10:13:48.677Z,99.99
2017-07-23T10:15:01.258Z,99.99
2017-07-23T10:16:13.869Z,99.99
2017-07-23T10:17:26.534Z,99.99
2017-07-23T10:18:39.176Z,99.99
2017-07-23T10:19:51.726Z,99.99
2017-07-23T10:21:04.310Z,99.99
2017-07-23T10:22:16.608Z,99.99
2017-07-23T10:23:29.181Z,99.99
2017-07-23T10:24:41.476Z,99.99
2017-07-23T10:25:54.098Z,99.99
2017-07-23T10:27:06.795Z,99.99
2017-07-23T10:28:18.808Z,99.99
2017-07-23T10:29:31.600Z,99.99
2017-07-23T10:30:43.883Z,99.99
2017-07-23T10:31:56.177Z,99.99
2017-07-23T10:33:08.173Z,99.99
2017-07-23T10:34:20.175Z,99.99
2017-07-23T10:35:32.790Z,99.99
2017-07-23T10:36:45.381Z,99.99
2017-07-23T10:37:57.956Z,99.99
2017-07-23T10:39:10.278Z,99.99
2017-07-23T10:40:22.587Z,99.99
2017-07-23T10:41:35.185Z,99.99
2017-07-23T10:42:47.741Z,99.99
2017-07-23T10:44:00.290Z,99.99
2017-07-23T10:45:12.854Z,99.99
2017-07-23T10:46:25.511Z,99.99
2017-07-23T10:47:38.129Z,99.99
2017-07-23T10:48:50.702Z,99.99
2017-07-23T10:50:02.987Z,99.99
2017-07-23T10:51:15.283Z,99.99
2017-07-23T10:52:27.608Z,99.99
2017-07-23T10:53:40.011Z,99.99
2017-07-23T10:54:52.598Z,99.99
2017-07-23T10:56:05.190Z,99.99
2017-07-23T10:57:17.447Z,99.99
2017-07-23T10:58:29.995Z,99.99
2017-07-23T10:59:42.231Z,99.99
2017-07-23T11:00:54.530Z,99.99
2017-07-23T11:02:06.823Z,99.99
2017-07-23T11:03:19.453Z,99.99
2017-07-23T11:04:31.754Z,99.99
2017-07-23T11:05:44.320Z,99.99
2017-07-23T11:06:56.905Z,99.99
2017-07-23T11:08:09.468Z,99.99
2017-07-23T11:09:21.490Z,99.99
2017-07-23T11:10:34.066Z,99.99
2017-07-23T11:11:46.097Z,99.99
2017-07-23T11:12:58.659Z,99.99
2017-07-23T11:14:11.312Z,99.99
2017-07-23T11:15:23.654Z,99.99
2017-07-23T11:16:35.972Z,99.99
2017-07-23T11:17:48.623Z,99.99
2017-07-23T11:19:01.473Z,99.99
2017-07-23T11:20:13.189Z,99.99
2017-07-23T11:21:25.207Z,99.99
2017-07-23T11:22:37.826Z,99.99
2017-07-23T11:23:50.173Z,99.99
2017-07-23T11:25:02.420Z,99.99
2017-07-23T11:26:14.941Z,99.99
2017-07-23T11:27:27.572Z,99.99
2017-07-23T11:28:40.166Z,99.99
2017-07-23T11:29:52.741Z,99.99
2017-07-23T11:31:05.052Z,99.99
2017-07-23T11:32:17.609Z,99.99
2017-07-23T11:33:29.858Z,99.99
2017-07-23T11:34:42.472Z,99.99
2017-07-23T11:35:55.056Z,99.99
2017-07-23T11:37:07.714Z,99.99
2017-07-23T11:38:19.423Z,99.99
2017-07-23T11:39:32.031Z,99.99
2017-07-23T11:40:44.018Z,99.99
2017-07-23T11:41:56.614Z,99.99
2017-07-23T11:43:09.186Z,99.99
2017-07-23T11:44:21.530Z,99.99
2017-07-23T11:45:34.117Z,99.99
2017-07-23T11:46:46.723Z,99.99
2017-07-23T11:47:58.984Z,99.99
2017-07-23T11:49:11.599Z,99.99
2017-07-23T11:50:24.187Z,99.99
2017-07-23T11:51:36.830Z,99.99
2017-07-23T11:52:49.111Z,99.99
2017-07-23T11:54:01.738Z,99.99
2017-07-23T11:55:13.710Z,99.99
2017-07-23T11:56:26.037Z,99.99
2017-07-23T11:57:38.612Z,99.99
2017-07-23T11:58:50.883Z,99.99
2017-07-23T12:00:03.157Z,99.99
2017-07-23T12:01:15.165Z,99.99
2017-07-23T12:02:27.773Z,99.99
2017-07-23T12:03:39.764Z,99.99
2017-07-23T12:04:52.064Z,99.99
2017-07-23T12:06:04.673Z,99.99
2017-07-23T12:07:17.296Z,99.99
2017-07-23T12:08:29.922Z,99.99
2017-07-23T12:09:42.210Z,99.99
2017-07-23T12:10:54.800Z,99.99
2017-07-23T12:12:07.073Z,99.99
2017-07-23T12:13:19.405Z,99.99
2017-07-23T12:14:31.707Z,99.99
2017-07-23T12:15:44.057Z,99.99
2017-07-23T12:16:56.368Z,99.99
2017-07-23T12:18:08.368Z,99.99
2017-07-23T12:19:20.388Z,99.99
2017-07-23T12:20:32.720Z,99.99
2017-07-23T12:21:45.278Z,99.99
2017-07-23T12:22:57.555Z,99.99
2017-07-23T12:24:10.172Z,99.99
2017-07-23T12:25:22.857Z,99.99
2017-07-23T12:26:35.113Z,99.99
2017-07-23T12:27:47.709Z,99.99
2017-07-23T12:29:00.370Z,99.99
2017-07-23T12:30:12.950Z,99.99
2017-07-23T12:31:25.276Z,99.99
2017-07-23T12:32:37.590Z,99.99
2017-07-23T12:33:50.158Z,99.99
2017-07-23T12:35:02.451Z,99.99
2017-07-23T12:36:15.027Z,99.99
2017-07-23T12:37:27.410Z,99.99
2017-07-23T12:38:40.024Z,99.99
2017-07-23T12:39:52.399Z,99.99
2017-07-23T12:41:04.680Z,99.99
2017-07-23T12:42:17.319Z,99.99
2017-07-23T12:43:29.912Z,99.99
2017-07-23T12:44:42.467Z,99.99
2017-07-23T12:45:55.063Z,99.99
2017-07-23T12:47:07.702Z,99.99
2017-07-23T12:48:20.005Z,99.99
2017-07-23T12:49:32.651Z,99.99
2017-07-23T12:50:44.982Z,99.99
2017-07-23T12:51:57.643Z,99.99
2017-07-23T12:53:09.913Z,99.99
2017-07-23T12:54:22.203Z,99.99
2017-07-23T12:55:34.781Z,99.99
2017-07-23T12:56:47.316Z,99.99
2017-07-23T12:57:59.297Z,99.99
2017-07-23T12:59:11.569Z,99.99
2017-07-23T13:00:24.228Z,99.99
2017-07-23T13:01:36.496Z,99.99
2017-07-23T13:02:48.487Z,99.99
2017-07-23T13:04:00.802Z,99.99
2017-07-23T13:05:12.768Z,99.99
2017-07-23T13:06:25.375Z,99.99
2017-07-23T13:07:37.954Z,99.99
2017-07-23T13:08:50.551Z,99.99
2017-07-23T13:10:03.260Z,99.99
2017-07-23T13:11:15.521Z,99.99
2017-07-23T13:12:27.887Z,99.99
2017-07-23T13:13:40.180Z,99.99
2017-07-23T13:14:52.821Z,99.99
2017-07-23T13:16:05.136Z,99.99
2017-07-23T13:17:16.832Z,99.99
2017-07-23T13:18:28.834Z,99.99
2017-07-23T13:19:40.916Z,99.99
2017-07-23T13:20:53.528Z,99.99
2017-07-23T13:22:05.872Z,99.99
2017-07-23T13:23:18.230Z,99.99
2017-07-23T13:24:30.524Z,99.99
2017-07-23T13:25:43.147Z,99.99
2017-07-23T13:26:55.409Z,99.99
2017-07-23T13:28:07.747Z,99.99
2017-07-23T13:29:20.378Z,99.99
2017-07-23T13:30:32.713Z,99.99
2017-07-23T13:31:45.358Z,99.99
2017-07-23T13:32:58.015Z,99.99
2017-07-23T13:34:10.591Z,99.99
2017-07-23T13:35:23.221Z,98.68
2017-07-23T13:36:35.862Z,99.99
2017-07-23T13:37:47.908Z,98.72
2017-07-23T13:39:00.546Z,95.5
2017-07-23T13:40:12.899Z,93.24
2017-07-23T13:41:25.474Z,96.18
2017-07-23T13:42:38.062Z,99.99
2017-07-23T13:43:50.339Z,95.74
2017-07-23T13:45:03.045Z,93.54
2017-07-23T13:46:15.973Z,92.72
2017-07-23T13:47:28.568Z,98.34
2017-07-23T13:48:40.251Z,94.53
2017-07-23T13:49:52.576Z,97.95
2017-07-23T13:51:04.893Z,96.63
2017-07-23T13:52:17.520Z,95.47
2017-07-23T13:53:30.071Z,89.37
2017-07-23T13:54:42.339Z,91.91
2017-07-23T13:55:54.902Z,94.98
2017-07-23T13:57:07.180Z,99.8
2017-07-23T13:58:19.827Z,95.62
2017-07-23T13:59:32.477Z,94.7
2017-07-23T14:00:44.766Z,98.05
2017-07-23T14:01:57.577Z,95.62
2017-07-23T14:03:09.847Z,94.12
2017-07-23T14:04:22.493Z,93.54
2017-07-23T14:05:35.069Z,98.39
2017-07-23T14:06:47.433Z,97.13
2017-07-23T14:08:00.056Z,97.22
2017-07-23T14:09:12.345Z,94.99
2017-07-23T14:10:24.074Z,95.87
2017-07-23T14:11:36.373Z,93.92
2017-07-23T14:12:48.704Z,95.28
2017-07-23T14:14:01.264Z,92.57
2017-07-23T14:15:13.200Z,94.26
2017-07-23T14:16:25.790Z,94.36
2017-07-23T14:17:38.386Z,95.39
2017-07-23T14:18:51.006Z,93.44
2017-07-23T14:20:03.312Z,93.4
2017-07-23T14:21:15.600Z,98.93
2017-07-23T14:22:27.880Z,99.99
2017-07-23T14:23:40.525Z,99.99
2017-07-23T14:24:52.786Z,99.99
2017-07-23T14:26:05.340Z,95.92
2017-07-23T14:27:17.983Z,96.41
2017-07-23T14:28:30.592Z,97.91
2017-07-23T14:29:43.220Z,97.42
2017-07-23T14:30:55.816Z,99.41
2017-07-23T14:32:08.403Z,99.99
2017-07-23T14:33:20.707Z,99.99
2017-07-23T14:34:33.230Z,95.14
2017-07-23T14:35:45.841Z,99.22
2017-07-23T14:36:58.124Z,96.4
2017-07-23T14:38:10.802Z,93.88
2017-07-23T14:39:23.375Z,91.84
2017-07-23T14:40:35.977Z,93.44
2017-07-23T14:41:48.581Z,97.81
2017-07-23T14:43:01.249Z,98.39
2017-07-23T14:44:13.521Z,99.27
2017-07-23T14:45:26.116Z,98.1
2017-07-23T14:46:38.467Z,98.39
2017-07-23T14:47:50.719Z,99.99
2017-07-23T14:49:03.332Z,97.91
2017-07-23T14:50:16.011Z,93.11
2017-07-23T14:51:27.987Z,98.05
2017-07-23T14:52:40.498Z,97.86
2017-07-23T14:53:52.812Z,95.63
2017-07-23T14:55:05.370Z,95.48
2017-07-23T14:56:17.760Z,97.81
2017-07-23T14:57:29.731Z,98.3
2017-07-23T14:58:42.075Z,97.71
2017-07-23T14:59:54.683Z,96.94
2017-07-23T15:01:06.641Z,94.71
2017-07-23T15:02:19.209Z,97.81
2017-07-23T15:03:31.767Z,95.1
2017-07-23T15:04:44.050Z,92.63
2017-07-23T15:05:56.381Z,93.02
2017-07-23T15:07:08.667Z,92.82
2017-07-23T15:08:20.970Z,91.08
2017-07-23T15:09:33.601Z,92.24
2017-07-23T15:10:46.184Z,92.43
2017-07-23T15:11:58.444Z,90.69
2017-07-23T15:13:10.378Z,90.88
2017-07-23T15:14:23.011Z,92.05
2017-07-23T15:15:35.542Z,90.59
2017-07-23T15:16:47.571Z,88.95
2017-07-23T15:18:00.132Z,89.33
2017-07-23T15:19:12.109Z,89.82
2017-07-23T15:20:24.459Z,90.01
2017-07-23T15:21:37.118Z,90.98
2017-07-23T15:22:49.096Z,89.33
2017-07-23T15:24:01.665Z,87.98
2017-07-23T15:25:13.680Z,89.14
2017-07-23T15:26:25.678Z,87.59
2017-07-23T15:27:37.735Z,88.75
2017-07-23T15:28:49.773Z,93.11
2017-07-23T15:30:02.395Z,93.3
2017-07-23T15:31:14.714Z,92.92
2017-07-23T15:32:26.700Z,89.33